createdAt,value
2023-03-02T00:02:55.138Z,1.4
2023-03-02T00:07:55.080Z,1.4
2023-03-02T00:12:54.881Z,1.3
2023-03-02T00:17:55.030Z,1.3
2023-03-02T00:22:55.002Z,1.3
2023-03-02T00:27:55.018Z,1.2
2023-03-02T00:32:54.888Z,1.2
2023-03-02T00:37:54.976Z,1.2
2023-03-02T00:42:54.948Z,1.1
2023-03-02T00:47:54.942Z,1
2023-03-02T00:52:54.958Z,1
2023-03-02T00:57:54.932Z,1
2023-03-02T01:02:54.852Z,0.9
2023-03-02T01:07:54.888Z,0.8
2023-03-02T01:12:54.780Z,0.8
2023-03-02T01:17:54.849Z,0.8
2023-03-02T01:22:54.786Z,0.7
2023-03-02T01:27:54.917Z,0.7
2023-03-02T01:32:54.798Z,0.6
2023-03-02T01:37:54.839Z,0.6
2023-03-02T01:42:54.790Z,0.6
2023-03-02T01:47:54.741Z,0.5
2023-03-02T01:52:54.638Z,0.4
2023-03-02T01:57:54.717Z,0.4
2023-03-02T02:02:54.676Z,0.4
2023-03-02T02:07:54.654Z,0.4
2023-03-02T02:12:54.573Z,0.3
2023-03-02T02:17:54.679Z,0.2
2023-03-02T02:22:54.656Z,0.1
2023-03-02T02:27:54.660Z,0.1
2023-03-02T02:32:54.434Z,0
2023-03-02T02:37:54.596Z,0
2023-03-02T02:42:54.586Z,0
2023-03-02T02:47:54.440Z,0
2023-03-02T02:52:54.381Z,-0.1
2023-03-02T02:57:54.357Z,-0.1
2023-03-02T03:02:54.337Z,-0.2
2023-03-02T03:07:54.321Z,-0.2
2023-03-02T03:12:54.390Z,-0.2
2023-03-02T03:17:54.325Z,-0.2
2023-03-02T03:22:54.344Z,-0.2
2023-03-02T03:27:54.252Z,-0.2
2023-03-02T03:32:54.234Z,-0.3
2023-03-02T03:37:54.260Z,-0.3
2023-03-02T03:42:54.202Z,-0.3
2023-03-02T03:47:54.366Z,-0.4
2023-03-02T03:52:54.179Z,-0.5
2023-03-02T03:57:54.157Z,-0.5
2023-03-02T04:02:54.149Z,-0.6
2023-03-02T04:07:54.115Z,-0.6
2023-03-02T04:12:54.107Z,-0.6
2023-03-02T04:17:54.087Z,-0.6
2023-03-02T04:22:54.094Z,-0.6
2023-03-02T04:27:54.050Z,-0.5
2023-03-02T04:32:54.054Z,-0.5
2023-03-02T04:37:54.035Z,-0.5
2023-03-02T04:42:54.029Z,-0.5
2023-03-02T04:47:54.023Z,-0.5
2023-03-02T04:52:54.009Z,-0.6
2023-03-02T04:57:53.979Z,-0.5
2023-03-02T05:02:53.979Z,-0.6
2023-03-02T05:07:54.028Z,-0.6
2023-03-02T05:12:53.941Z,-0.6
2023-03-02T05:17:53.908Z,-0.6
2023-03-02T05:22:53.895Z,-0.7
2023-03-02T05:27:53.949Z,-0.7
2023-03-02T05:32:53.867Z,-0.8
2023-03-02T05:37:53.856Z,-0.8
2023-03-02T05:42:53.838Z,-0.9
2023-03-02T05:47:53.816Z,-1
2023-03-02T05:52:53.795Z,-1.1
2023-03-02T05:57:53.785Z,-1.1
2023-03-02T06:02:53.763Z,-1.2
2023-03-02T06:07:53.761Z,-1.2
2023-03-02T06:12:53.737Z,-1.2
2023-03-02T06:17:53.731Z,-1.3
2023-03-02T06:22:53.719Z,-1.3
2023-03-02T06:27:53.737Z,-1.3
2023-03-02T06:32:53.702Z,-1.2
2023-03-02T06:37:53.661Z,-1.2
2023-03-02T06:42:53.668Z,-1.2
2023-03-02T06:47:53.652Z,-1.2
2023-03-02T06:52:53.625Z,-1.2
2023-03-02T06:57:53.604Z,-1.2
2023-03-02T07:02:53.646Z,-1.1
2023-03-02T07:07:53.641Z,-1.1
2023-03-02T07:12:53.662Z,-1.1
2023-03-02T07:17:53.532Z,-1.1
2023-03-02T07:22:53.523Z,-1
2023-03-02T07:27:53.505Z,-0.9
2023-03-02T07:32:53.585Z,-0.7
2023-03-02T07:37:53.488Z,-0.5
2023-03-02T07:42:53.499Z,-0.4
2023-03-02T07:47:53.470Z,-0.3
2023-03-02T07:52:53.447Z,-0.1
2023-03-02T07:57:53.452Z,0.1
2023-03-02T08:02:53.402Z,0.2
2023-03-02T08:07:53.400Z,0.4
2023-03-02T08:12:53.410Z,0.5
2023-03-02T08:17:53.342Z,0.7
2023-03-02T08:22:53.336Z,0.8
2023-03-02T08:27:53.324Z,1.1
2023-03-02T08:32:53.305Z,1.3
2023-03-02T08:37:53.338Z,1.5
2023-03-02T08:42:53.269Z,1.7
2023-03-02T08:47:53.247Z,1.8
2023-03-02T08:52:53.233Z,1.9
2023-03-02T08:57:53.252Z,1.9
2023-03-02T09:02:53.210Z,2.1
2023-03-02T09:07:53.257Z,2.3
2023-03-02T09:12:53.166Z,2.5
2023-03-02T09:17:53.142Z,2.6
2023-03-02T09:22:53.140Z,2.8
2023-03-02T09:32:53.130Z,3
2023-03-02T09:42:53.059Z,3.2
2023-03-02T09:47:53.045Z,3.3
2023-03-02T09:52:53.207Z,3.3
2023-03-02T09:57:53.068Z,3.3
2023-03-02T10:02:53.102Z,3.3
2023-03-02T10:07:52.980Z,3.4
2023-03-02T10:12:53.005Z,3.5
2023-03-02T10:17:52.940Z,3.6
2023-03-02T10:22:52.982Z,3.7
2023-03-02T10:27:52.910Z,3.8
2023-03-02T10:32:52.910Z,3.9
2023-03-02T10:37:52.863Z,3.9
2023-03-02T10:42:52.850Z,4
2023-03-02T10:47:52.875Z,4.1
2023-03-02T10:52:52.812Z,4.2
2023-03-02T10:57:52.798Z,4.3
2023-03-02T11:02:52.775Z,4.4
2023-03-02T11:07:52.776Z,4.5
2023-03-02T11:12:52.744Z,4.6
2023-03-02T11:17:52.727Z,4.8
2023-03-02T11:22:52.710Z,4.9
2023-03-02T11:27:52.751Z,5
2023-03-02T11:32:52.685Z,5.1
2023-03-02T11:37:52.728Z,5.1
2023-03-02T11:42:52.681Z,5.2
2023-03-02T11:47:52.628Z,5.2
2023-03-02T11:52:52.643Z,5.3
2023-03-02T11:57:52.617Z,5.4
2023-03-02T12:02:52.705Z,5.4
2023-03-02T12:07:52.721Z,5.5
2023-03-02T12:12:52.774Z,5.6
2023-03-02T12:17:52.689Z,5.6
2023-03-02T12:22:52.628Z,5.7
2023-03-02T12:27:52.531Z,5.8
2023-03-02T12:32:52.471Z,5.9
2023-03-02T12:37:52.555Z,6
2023-03-02T12:42:52.574Z,6
2023-03-02T12:47:52.537Z,6.1
2023-03-02T12:52:52.449Z,6
2023-03-02T12:57:52.357Z,6.2
2023-03-02T13:02:52.471Z,6.3
2023-03-02T13:07:52.325Z,6.4
2023-03-02T13:12:52.314Z,6.4
2023-03-02T13:17:52.509Z,6.4
2023-03-02T13:22:52.268Z,6.5
2023-03-02T13:27:52.254Z,6.5
2023-03-02T13:32:52.226Z,6.5
2023-03-02T13:37:52.280Z,6.5
2023-03-02T13:42:52.212Z,6.6
2023-03-02T13:47:52.241Z,6.6
2023-03-02T13:52:52.247Z,6.6
2023-03-02T13:57:52.159Z,6.6
2023-03-02T14:02:52.115Z,6.5
2023-03-02T14:07:52.101Z,6.6
2023-03-02T14:12:52.071Z,6.6
2023-03-02T14:17:52.058Z,6.6
2023-03-02T14:22:52.083Z,6.6
2023-03-02T14:27:52.019Z,6.6
2023-03-02T14:32:52.049Z,6.5
2023-03-02T14:37:52.172Z,6.5
2023-03-02T14:42:51.967Z,6.5
2023-03-02T14:47:51.950Z,6.4
2023-03-02T14:52:51.921Z,6.4
2023-03-02T14:57:51.969Z,6.4
2023-03-02T15:02:51.895Z,6.4
2023-03-02T15:07:51.876Z,6.4
2023-03-02T15:12:51.860Z,6.5
2023-03-02T15:17:51.845Z,6.4
2023-03-02T15:22:51.824Z,6.4
2023-03-02T15:27:51.807Z,6.4
2023-03-02T15:32:51.786Z,6.3
2023-03-02T15:37:51.764Z,6.3
2023-03-02T15:42:51.746Z,6.3
2023-03-02T15:47:51.928Z,6.3
2023-03-02T15:52:51.857Z,6.3
2023-03-02T15:57:51.693Z,6.3
2023-03-02T16:02:51.809Z,6.3
2023-03-02T16:07:51.743Z,6.2
2023-03-02T16:12:51.630Z,6.2
2023-03-02T16:17:51.615Z,6.1
2023-03-02T16:22:51.595Z,6.1
2023-03-02T16:27:51.632Z,6.1
2023-03-02T16:32:51.563Z,5.9
2023-03-02T16:37:51.684Z,5.9
2023-03-02T16:42:51.580Z,5.7
2023-03-02T16:47:51.509Z,5.5
2023-03-02T16:52:51.499Z,5.5
2023-03-02T16:57:51.529Z,5.3
2023-03-02T17:02:51.460Z,5.2
2023-03-02T17:07:51.434Z,5
2023-03-02T17:12:51.440Z,4.8
2023-03-02T17:17:51.395Z,4.6
2023-03-02T17:22:51.388Z,4.4
2023-03-02T17:27:51.401Z,4.3
2023-03-02T17:32:51.344Z,4.1
2023-03-02T17:37:51.352Z,3.9
2023-03-02T17:42:51.310Z,3.8
2023-03-02T17:47:51.298Z,3.9
2023-03-02T17:52:51.272Z,3.8
2023-03-02T17:57:51.261Z,3.8
2023-03-02T18:02:51.259Z,3.8
2023-03-02T18:07:51.240Z,3.7
2023-03-02T18:12:51.206Z,3.6
2023-03-02T18:17:51.192Z,3.4
2023-03-02T18:22:51.169Z,3.3
2023-03-02T18:27:51.150Z,3.1
2023-03-02T18:32:51.119Z,3
2023-03-02T18:37:51.193Z,2.9
2023-03-02T18:42:51.094Z,2.7
2023-03-02T18:47:51.084Z,2.6
2023-03-02T18:52:51.072Z,2.6
2023-03-02T18:57:51.051Z,2.5
2023-03-02T19:02:51.027Z,2.4
2023-03-02T19:07:51.013Z,2.3
2023-03-02T19:12:51.001Z,2.3
2023-03-02T19:17:51.138Z,2.2
2023-03-02T19:22:50.987Z,2.2
2023-03-02T19:27:50.955Z,2.1
2023-03-02T19:32:50.980Z,2.1
2023-03-02T19:37:50.935Z,2.1
2023-03-02T19:42:50.919Z,2.1
2023-03-02T19:52:50.899Z,2.1
2023-03-02T19:57:51.017Z,2
2023-03-02T20:02:50.910Z,1.9
2023-03-02T20:07:50.814Z,1.8
2023-03-02T20:12:50.838Z,1.8
2023-03-02T20:17:50.952Z,1.8
2023-03-02T20:22:50.751Z,1.7
2023-03-02T20:27:50.808Z,1.7
2023-03-02T20:32:50.732Z,1.7
2023-03-02T20:37:50.745Z,1.8
2023-03-02T20:42:50.715Z,1.8
2023-03-02T20:47:50.769Z,1.9
2023-03-02T20:52:50.699Z,2
2023-03-02T20:57:50.635Z,2.1
2023-03-02T21:02:50.614Z,2.2
2023-03-02T21:07:50.599Z,2.2
2023-03-02T21:12:50.743Z,2.2
2023-03-02T21:17:50.636Z,2.2
2023-03-02T21:22:50.563Z,2.3
2023-03-02T21:27:50.536Z,2.3
2023-03-02T21:32:50.568Z,2.3
2023-03-02T21:37:50.500Z,2.4
2023-03-02T21:42:50.519Z,2.4
2023-03-02T21:47:50.467Z,2.4
2023-03-02T21:52:50.450Z,2.4
2023-03-02T21:57:50.435Z,2.5
2023-03-02T22:02:50.413Z,2.5
2023-03-02T22:07:50.415Z,2.5
2023-03-02T22:12:50.396Z,2.4
2023-03-02T22:17:50.380Z,2.4
2023-03-02T22:22:50.358Z,2.4
2023-03-02T22:27:50.339Z,2.2
2023-03-02T22:32:50.330Z,2.2
2023-03-02T22:37:50.304Z,2.2
2023-03-02T22:42:50.291Z,2.1
2023-03-02T22:47:50.265Z,2.1
2023-03-02T22:52:50.269Z,2.1
2023-03-02T22:57:50.258Z,2.1
2023-03-02T23:02:50.231Z,2.1
2023-03-02T23:07:50.256Z,2.1
2023-03-02T23:12:50.197Z,2.1
2023-03-02T23:17:50.170Z,2
2023-03-02T23:22:50.160Z,2
2023-03-02T23:27:50.144Z,1.9
2023-03-02T23:32:50.131Z,1.9
2023-03-02T23:37:50.229Z,1.9
2023-03-02T23:42:50.147Z,1.8
2023-03-02T23:47:50.173Z,1.8
2023-03-02T23:52:50.175Z,1.7
2023-03-02T23:57:50.027Z,1.7
